Time;durP1;ratioP1;P1;durP2;ratioP2;P2;SDS_P1;SDS_P2;PMS_P1;PMS_P2;Temp;Humidity;BMP_temperature;BMP_pressure;BME280_temperature;BME280_humidity;BME280_pressure;Samples;Min_cycle;Max_cycle;Signal;HPM_P1;HPM_P2
2021/11/06 00:01:22;;;;;;;15.80;9.80;;;7.40;99.90;;;8.05;100.00;101183.53;5036277;28;20313;-62
2021/11/06 00:03:50;;;;;;;13.13;8.50;;;7.40;99.90;;;8.07;100.00;101186.03;5036012;28;20866;-60
2021/11/06 00:06:19;;;;;;;15.20;9.23;;;7.40;99.90;;;8.04;100.00;101181.88;5036083;28;20572;-60
2021/11/06 00:08:48;;;;;;;14.17;9.37;;;7.40;99.90;;;8.31;100.00;101173.31;5036301;28;20301;-60
2021/11/06 00:11:16;;;;;;;14.10;9.03;;;7.40;99.90;;;8.38;100.00;101176.09;5036204;28;20232;-61
2021/11/06 00:13:44;;;;;;;11.63;7.93;;;7.40;99.90;;;8.24;100.00;101182.25;5036261;28;20289;-61
2021/11/06 00:16:12;;;;;;;12.93;8.63;;;7.40;99.90;;;8.18;100.00;101181.09;5036183;28;20289;-60
2021/11/06 00:18:40;;;;;;;14.10;8.70;;;7.40;99.90;;;8.35;100.00;101176.47;5035999;28;20232;-61
2021/11/06 00:21:08;;;;;;;16.50;9.03;;;7.50;99.90;;;8.25;100.00;101191.97;5036285;28;20252;-60
2021/11/06 00:23:36;;;;;;;17.93;9.97;;;7.50;99.90;;;8.36;100.00;101186.19;5036108;28;20229;-60
2021/11/06 00:26:06;;;;;;;13.93;9.53;;;7.50;99.90;;;8.50;100.00;101182.72;5035635;28;20725;-62
2021/11/06 00:28:34;;;;;;;15.17;9.17;;;7.50;99.90;;;8.40;100.00;101193.72;5035714;28;20795;-61
2021/11/06 00:31:01;;;;;;;13.77;9.63;;;7.50;99.90;;;8.35;100.00;101187.22;5035832;28;20233;-61
2021/11/06 00:33:29;;;;;;;15.37;10.10;;;7.50;99.90;;;8.40;100.00;101198.25;5035736;28;20202;-61
2021/11/06 00:35:58;;;;;;;12.30;9.50;;;7.50;99.90;;;8.20;100.00;101200.53;5035920;28;20206;-60
2021/11/06 00:38:26;;;;;;;15.80;9.27;;;7.50;99.90;;;8.44;100.00;101197.69;5035636;28;20202;-60
2021/11/06 00:40:54;;;;;;;13.57;9.30;;;7.60;99.90;;;8.38;100.00;101203.78;5035836;28;20293;-60
2021/11/06 00:43:23;;;;;;;13.87;9.13;;;7.60;99.90;;;8.34;100.00;101205.16;5035770;28;20319;-61
2021/11/06 00:45:51;;;;;;;13.10;8.93;;;7.50;99.90;;;8.46;100.00;101202.88;5035486;28;20216;-60
2021/11/06 00:48:19;;;;;;;13.10;8.73;;;7.60;99.90;;;8.19;100.00;101214.13;5035298;28;20202;-62
2021/11/06 00:50:47;;;;;;;14.60;8.93;;;7.50;99.90;;;8.38;100.00;101211.84;5035632;28;20662;-60
2021/11/06 00:53:15;;;;;;;13.10;9.70;;;7.50;99.90;;;8.34;100.00;101207.84;5035324;28;20745;-61
2021/11/06 00:55:43;;;;;;;11.97;8.50;;;7.50;99.90;;;8.03;100.00;101203.50;5035251;28;20244;-61
2021/11/06 00:58:11;;;;;;;14.00;9.57;;;7.40;99.90;;;8.06;100.00;101205.84;5035096;28;20244;-61
2021/11/06 01:00:41;;;;;;;13.57;9.17;;;7.40;99.90;;;7.90;100.00;101208.63;5035295;28;20550;-59
2021/11/06 01:03:09;;;;;;;13.50;9.03;;;7.30;99.90;;;7.90;100.00;101200.59;5035313;28;20301;-60
2021/11/06 01:05:37;;;;;;;12.27;8.70;;;7.20;99.90;;;7.86;100.00;101200.09;5035341;28;20198;-61
2021/11/06 01:08:07;;;;;;;14.67;9.47;;;7.20;99.90;;;7.90;100.00;101208.63;5034775;28;20205;-61
2021/11/06 01:10:35;;;;;;;15.67;9.10;;;7.20;99.90;;;7.96;100.00;101203.38;5035205;28;20296;-60
2021/11/06 01:13:03;;;;;;;16.00;8.70;;;7.20;99.90;;;7.80;100.00;101207.97;5035002;28;20808;-61
2021/11/06 01:15:31;;;;;;;20.57;9.27;;;7.20;99.90;;;7.72;100.00;101206.19;5035245;28;20296;-61
2021/11/06 01:18:01;;;;;;;13.20;9.50;;;7.10;99.90;;;7.64;100.00;101206.25;5035025;28;20289;-61
2021/11/06 01:20:29;;;;;;;19.17;10.00;;;7.00;99.90;;;7.70;100.00;101207.38;5034879;28;20605;-61
2021/11/06 01:22:58;;;;;;;15.63;10.10;;;7.00;99.90;;;7.73;100.00;101202.50;5035197;28;20280;-61
2021/11/06 01:25:26;;;;;;;13.87;9.57;;;7.00;99.90;;;7.71;100.00;101201.84;5035080;28;20285;-60
2021/11/06 01:27:54;;;;;;;15.77;10.13;;;7.00;99.90;;;7.78;100.00;101213.53;5034661;28;20209;-61
2021/11/06 01:30:23;;;;;;;14.70;10.20;;;7.00;99.90;;;7.80;100.00;101211.50;5034893;28;20333;-60
2021/11/06 01:32:51;;;;;;;15.70;10.23;;;7.10;99.90;;;7.80;100.00;101218.72;5034358;28;20252;-61
2021/11/06 01:35:21;;;;;;;15.73;11.30;;;7.10;99.90;;;7.66;100.00;101214.13;5034588;28;20292;-61
2021/11/06 01:37:49;;;;;;;15.83;11.43;;;7.00;99.90;;;7.83;100.00;101215.69;5034774;28;20301;-59
2021/11/06 01:40:21;;;;;;;14.20;9.83;;;7.10;99.90;;;7.74;100.00;101216.75;5034721;28;20302;-61
2021/11/06 01:42:49;;;;;;;14.20;9.00;;;7.00;99.90;;;7.68;100.00;101217.47;5034713;28;20286;-60
2021/11/06 01:45:21;;;;;;;14.20;8.23;;;7.00;99.90;;;7.54;100.00;101219.03;5034619;28;20220;-61
2021/11/06 01:47:50;;;;;;;12.57;9.00;;;6.90;99.90;;;7.64;100.00;101225.00;5034334;28;20277;-61
2021/11/06 01:50:22;;;;;;;16.23;8.47;;;6.80;99.90;;;7.42;100.00;101226.59;5034331;28;20745;-60
2021/11/06 01:52:50;;;;;;;13.47;9.03;;;6.80;99.90;;;7.55;100.00;101230.56;5034496;28;20298;-60
2021/11/06 01:55:19;;;;;;;14.23;8.47;;;6.80;99.90;;;7.49;100.00;101232.13;5034298;28;20208;-60
2021/11/06 01:57:48;;;;;;;15.87;8.60;;;6.70;99.90;;;7.37;100.00;101226.25;5033896;28;20230;-60
2021/11/06 02:00:22;;;;;;;17.37;9.53;;;6.70;99.90;;;7.08;100.00;101227.88;5033888;28;20297;-59
2021/11/06 02:02:51;;;;;;;12.83;8.63;;;6.60;99.90;;;6.95;100.00;101227.56;5034032;28;20210;-59
2021/11/06 02:05:21;;;;;;;13.83;9.90;;;6.50;99.90;;;6.88;100.00;101230.06;5034331;28;20194;-59
2021/11/06 02:07:49;;;;;;;13.13;9.20;;;6.40;99.90;;;6.87;100.00;101233.75;5033875;28;20665;-60
2021/11/06 02:10:17;;;;;;;16.40;10.33;;;6.30;99.90;;;6.80;100.00;101239.97;5033922;28;20611;-60
2021/11/06 02:12:47;;;;;;;20.03;11.50;;;6.20;99.90;;;6.71;100.00;101230.28;5033777;28;20584;-60
2021/11/06 02:15:18;;;;;;;19.20;11.60;;;6.10;99.90;;;6.63;100.00;101235.63;5033785;28;20555;-60
2021/11/06 02:17:49;;;;;;;18.13;12.60;;;6.10;99.90;;;6.68;100.00;101231.44;5033817;28;20277;-60
2021/11/06 02:20:21;;;;;;;17.57;11.43;;;6.10;99.90;;;6.61;100.00;101235.81;5033088;28;20686;-59
2021/11/06 02:22:51;;;;;;;17.20;11.83;;;6.10;99.90;;;6.62;100.00;101229.44;5033587;28;20187;-59
2021/11/06 02:25:20;;;;;;;16.67;12.77;;;6.10;99.90;;;6.57;100.00;101234.44;5033919;28;20187;-60
2021/11/06 02:28:08;;;;;;;17.47;12.70;;;6.00;99.90;;;6.77;100.00;101235.78;5033754;28;20194;-61
2021/11/06 02:30:37;;;;;;;18.60;11.53;;;6.00;99.90;;;6.69;100.00;101240.31;5033861;28;20204;-59
2021/11/06 02:33:05;;;;;;;15.73;11.00;;;6.00;99.90;;;6.70;100.00;101240.13;5033143;28;20781;-60
2021/11/06 02:35:33;;;;;;;16.57;10.37;;;6.00;99.90;;;6.66;100.00;101230.78;5033675;28;20256;-59
2021/11/06 02:38:03;;;;;;;15.07;10.53;;;6.00;99.90;;;6.71;100.00;101238.31;5033613;28;20205;-59
2021/11/06 02:40:31;;;;;;;16.93;10.97;;;6.00;99.90;;;6.54;100.00;101237.47;5033365;28;20728;-60
2021/11/06 02:43:00;;;;;;;16.37;11.80;;;6.00;99.90;;;6.47;100.00;101236.47;5033188;28;20640;-60
2021/11/06 02:45:28;;;;;;;17.80;10.87;;;6.00;99.90;;;6.63;100.00;101239.13;5033266;28;20292;-60
2021/11/06 02:47:56;;;;;;;20.20;10.77;;;6.00;99.90;;;6.62;100.00;101233.94;5033070;28;20252;-60
2021/11/06 02:50:25;;;;;;;16.27;10.90;;;6.00;99.90;;;6.62;100.00;101240.16;5033140;28;20804;-59
2021/11/06 02:52:53;;;;;;;15.83;9.90;;;6.00;99.90;;;6.64;100.00;101240.81;5032871;28;20269;-60
2021/11/06 02:55:22;;;;;;;17.13;10.27;;;6.00;99.90;;;6.56;100.00;101243.47;5033261;28;20340;-59
2021/11/06 02:57:52;;;;;;;19.30;10.33;;;6.00;99.90;;;6.44;100.00;101244.84;5032766;28;20326;-59
2021/11/06 03:00:21;;;;;;;13.90;10.30;;;5.90;99.90;;;6.66;100.00;101248.69;5033197;28;20233;-60
2021/11/06 03:02:49;;;;;;;20.27;11.80;;;6.00;99.90;;;6.77;100.00;101248.31;5032990;28;20292;-59
2021/11/06 03:05:17;;;;;;;20.77;11.27;;;6.00;99.90;;;6.69;100.00;101246.50;5032976;28;20289;-60
2021/11/06 03:07:45;;;;;;;18.43;11.10;;;6.00;99.90;;;6.81;100.00;101241.63;5032852;28;20206;-59
2021/11/06 03:10:15;;;;;;;19.20;12.00;;;6.00;99.90;;;6.69;100.00;101251.00;5032887;28;20697;-60
2021/11/06 03:12:45;;;;;;;17.10;10.13;;;6.00;99.90;;;6.70;100.00;101245.47;5032819;28;20225;-60
2021/11/06 03:15:14;;;;;;;17.57;10.40;;;6.00;99.90;;;6.75;100.00;101247.69;5033241;28;20196;-59
2021/11/06 03:17:43;;;;;;;16.37;10.90;;;6.10;99.90;;;6.64;100.00;101245.31;5032690;28;20237;-60
2021/11/06 03:20:14;;;;;;;16.13;10.97;;;6.10;99.90;;;6.55;100.00;101247.16;5032972;28;20202;-59
2021/11/06 03:22:42;;;;;;;17.67;12.57;;;6.00;99.90;;;6.62;100.00;101255.34;5032995;28;20205;-60
2021/11/06 03:25:13;;;;;;;17.77;11.77;;;6.10;99.90;;;6.84;100.00;101254.69;5033155;28;20202;-60
2021/11/06 03:27:41;;;;;;;16.83;12.07;;;6.10;99.90;;;7.16;100.00;101254.63;5032981;28;20229;-59
2021/11/06 03:30:12;;;;;;;17.43;10.80;;;6.20;99.90;;;7.29;100.00;101261.13;5032333;28;20574;-59
2021/11/06 03:32:40;;;;;;;19.20;11.77;;;6.40;99.90;;;7.26;100.00;101256.13;5031768;28;20297;-60
2021/11/06 03:35:10;;;;;;;16.27;11.50;;;6.50;99.90;;;7.28;100.00;101254.13;5032788;28;20202;-60
2021/11/06 03:37:38;;;;;;;15.60;10.80;;;6.50;99.90;;;7.33;100.00;101265.16;5032789;28;20305;-60
2021/11/06 03:40:08;;;;;;;16.07;10.57;;;6.60;99.90;;;7.40;100.00;101266.16;5032727;28;20377;-60
2021/11/06 03:42:36;;;;;;;15.83;9.97;;;6.60;99.90;;;7.35;100.00;101268.50;5033010;28;20216;-60
2021/11/06 03:45:06;;;;;;;16.60;10.17;;;6.70;99.90;;;7.41;100.00;101266.97;5032841;28;20305;-58
2021/11/06 03:47:36;;;;;;;13.10;9.43;;;6.70;99.90;;;7.44;100.00;101278.19;5032464;28;20289;-60
2021/11/06 03:50:08;;;;;;;15.47;10.07;;;6.80;99.90;;;7.66;100.00;101273.09;5032464;28;20628;-60
2021/11/06 03:52:38;;;;;;;15.07;10.40;;;6.80;99.90;;;7.61;100.00;101272.78;5032376;28;20649;-60
2021/11/06 03:55:10;;;;;;;14.90;9.70;;;6.80;99.90;;;7.74;100.00;101279.28;5032459;28;20209;-59
2021/11/06 03:57:39;;;;;;;15.23;9.97;;;6.90;99.90;;;7.70;100.00;101275.25;5032259;28;20321;-60
2021/11/06 04:00:10;;;;;;;14.20;8.90;;;6.90;99.90;;;7.70;100.00;101280.63;5032323;28;20206;-61
2021/11/06 04:02:41;;;;;;;13.83;9.67;;;7.00;99.90;;;7.77;100.00;101283.44;5032272;28;20256;-60
2021/11/06 04:05:09;;;;;;;13.23;9.30;;;7.00;99.90;;;7.87;100.00;101276.00;5032532;28;20350;-60
2021/11/06 04:07:37;;;;;;;12.63;9.00;;;7.00;99.90;;;7.80;100.00;101269.66;5032514;28;20281;-59
2021/11/06 04:10:07;;;;;;;12.43;8.53;;;7.00;99.90;;;7.95;100.00;101282.19;5032336;28;20202;-60
2021/11/06 04:12:36;;;;;;;12.27;8.13;;;7.00;99.90;;;7.83;100.00;101274.72;5032059;28;20313;-60
2021/11/06 04:15:06;;;;;;;13.23;9.40;;;7.00;99.90;;;7.77;100.00;101278.06;5032107;28;20602;-60
2021/11/06 04:17:34;;;;;;;13.47;10.03;;;7.00;99.90;;;7.75;100.00;101269.34;5031829;28;20241;-59
2021/11/06 04:20:06;;;;;;;14.93;10.33;;;7.00;99.90;;;7.82;100.00;101270.34;5032466;28;20202;-61
2021/11/06 04:22:35;;;;;;;14.03;9.80;;;7.00;99.90;;;7.80;100.00;101261.63;5032368;28;20281;-59
2021/11/06 04:25:05;;;;;;;11.97;8.40;;;7.00;99.90;;;7.70;100.00;101263.69;5012755;28;20205;-59
2021/11/06 04:27:33;;;;;;;16.53;9.83;;;7.00;99.90;;;7.71;100.00;101268.06;5012415;28;20186;-59
2021/11/06 04:30:02;;;;;;;14.43;9.40;;;7.00;99.90;;;7.75;100.00;101274.72;5012561;28;20199;-60
2021/11/06 04:32:30;;;;;;;12.57;9.87;;;7.00;99.90;;;7.71;100.00;101276.09;5012151;28;20285;-60
2021/11/06 04:34:58;;;;;;;13.97;9.97;;;7.00;99.90;;;7.68;100.00;101279.13;5012284;28;20303;-60
2021/11/06 04:37:27;;;;;;;12.90;9.10;;;7.00;99.90;;;7.77;100.00;101276.25;5012279;28;20217;-59
2021/11/06 04:39:55;;;;;;;14.83;10.27;;;7.00;99.90;;;7.97;100.00;101274.78;5012267;28;20206;-60
2021/11/06 04:42:24;;;;;;;13.97;9.40;;;7.10;99.90;;;7.83;100.00;101277.41;5013701;28;20199;-60
2021/11/06 04:44:52;;;;;;;13.07;10.17;;;7.10;99.90;;;7.83;100.00;101272.84;5015819;28;20635;-61
2021/11/06 04:47:20;;;;;;;14.30;10.33;;;7.00;99.90;;;7.78;100.00;101274.41;5015735;28;20297;-60
2021/11/06 04:49:48;;;;;;;12.80;10.83;;;7.00;99.90;;;7.74;100.00;101273.06;5015791;28;20206;-60
2021/11/06 04:52:16;;;;;;;15.23;9.83;;;7.00;99.90;;;7.84;100.00;101271.00;5015989;28;20294;-60
2021/11/06 04:54:45;;;;;;;13.40;10.50;;;7.00;99.90;;;7.84;100.00;101271.00;5015862;28;20559;-61
2021/11/06 04:57:13;;;;;;;12.47;9.33;;;7.00;99.90;;;7.88;100.00;101275.03;5015468;28;20227;-59
2021/11/06 04:59:41;;;;;;;13.93;9.43;;;7.10;99.90;;;7.82;100.00;101273.03;5015723;28;20238;-60
2021/11/06 05:02:09;;;;;;;16.13;8.93;;;7.10;99.90;;;7.81;100.00;101268.69;5015260;28;20297;-60
2021/11/06 05:04:37;;;;;;;14.43;9.57;;;7.10;99.90;;;7.77;100.00;101273.56;5015401;28;20206;-60
2021/11/06 05:07:06;;;;;;;17.23;10.30;;;7.10;99.90;;;7.87;100.00;101273.34;5015477;28;20225;-60
2021/11/06 05:09:34;;;;;;;13.67;9.83;;;7.10;99.90;;;7.95;100.00;101281.38;5015498;28;20290;-59
2021/11/06 05:12:05;;;;;;;14.80;9.83;;;7.10;99.90;;;7.81;100.00;101284.78;5015527;28;20229;-59
2021/11/06 05:14:33;;;;;;;15.93;9.73;;;7.10;99.90;;;7.90;100.00;101281.88;5015386;28;20302;-60
2021/11/06 05:17:01;;;;;;;14.30;9.37;;;7.10;99.90;;;7.95;100.00;101284.06;5014692;28;20302;-60
2021/11/06 05:19:29;;;;;;;15.33;10.00;;;7.10;99.90;;;8.04;100.00;101272.25;5015148;28;20297;-61
2021/11/06 05:21:58;;;;;;;13.97;9.50;;;7.10;99.90;;;7.91;100.00;101277.34;5015215;28;20237;-59
2021/11/06 05:24:26;;;;;;;15.40;9.90;;;7.10;99.90;;;7.97;100.00;101276.63;5030302;28;20222;-60
2021/11/06 05:26:54;;;;;;;11.10;8.10;;;7.20;99.90;;;7.91;100.00;101280.88;5034837;28;20202;-60
2021/11/06 05:29:23;;;;;;;13.37;9.13;;;7.20;99.90;;;8.02;100.00;101280.47;5034898;28;20209;-60
2021/11/06 05:31:51;;;;;;;14.20;9.20;;;7.20;99.90;;;8.07;100.00;101274.56;5034900;28;20276;-59
2021/11/06 05:34:19;;;;;;;13.97;9.77;;;7.20;99.90;;;8.01;100.00;101278.81;5034720;28;20222;-61
2021/11/06 05:36:48;;;;;;;12.53;9.40;;;7.20;99.90;;;8.14;100.00;101271.03;5034328;28;20731;-62
2021/11/06 05:39:16;;;;;;;13.83;10.43;;;7.30;99.90;;;8.06;100.00;101279.13;5034575;28;20208;-60
2021/11/06 05:41:44;;;;;;;15.17;10.37;;;7.30;99.90;;;7.99;100.00;101283.50;5034711;28;20202;-60
2021/11/06 05:44:12;;;;;;;13.93;9.40;;;7.30;99.90;;;7.93;100.00;101278.03;5034516;28;20197;-60
2021/11/06 05:46:42;;;;;;;13.97;10.03;;;7.30;99.90;;;7.97;100.00;101277.47;5033933;28;20210;-60
2021/11/06 05:49:10;;;;;;;13.30;10.03;;;7.30;99.90;;;8.09;100.00;101275.25;5034067;28;20558;-59
2021/11/06 05:51:39;;;;;;;14.13;10.17;;;7.40;99.90;;;8.23;100.00;101277.19;5034313;28;20205;-60
2021/11/06 05:54:08;;;;;;;16.63;10.27;;;7.30;99.90;;;8.23;100.00;101269.13;5033311;28;20218;-60
2021/11/06 05:56:36;;;;;;;14.30;10.27;;;7.40;99.90;;;8.11;100.00;101282.13;5034122;28;20320;-60
2021/11/06 05:59:04;;;;;;;13.47;10.23;;;7.40;99.90;;;8.19;100.00;101276.69;5034328;28;20182;-60
2021/11/06 06:01:32;;;;;;;14.03;10.00;;;7.40;99.90;;;8.24;100.00;101282.41;5034323;28;20202;-60
2021/11/06 06:04:01;;;;;;;17.43;10.83;;;7.40;99.90;;;8.33;100.00;101275.97;5033982;28;20194;-60
2021/11/06 06:06:29;;;;;;;20.47;11.27;;;7.50;99.90;;;8.22;100.00;101283.56;5034221;28;20285;-60
2021/11/06 06:08:58;;;;;;;16.93;10.40;;;7.50;99.90;;;8.11;100.00;101283.94;5033854;28;20293;-60
2021/11/06 06:11:26;;;;;;;12.97;9.70;;;7.50;99.90;;;8.25;100.00;101273.31;5033942;28;20289;-60
2021/11/06 06:13:57;;;;;;;11.90;9.33;;;7.50;99.90;;;8.15;100.00;101283.41;5034384;28;20202;-60
2021/11/06 06:16:25;;;;;;;13.83;10.17;;;7.50;99.90;;;8.37;100.00;101288.00;5033576;28;20300;-59
2021/11/06 06:18:53;;;;;;;14.17;10.43;;;7.50;99.90;;;8.49;100.00;101289.28;5033351;28;20757;-60
2021/11/06 06:21:23;;;;;;;13.07;10.20;;;7.60;99.90;;;8.61;100.00;101285.16;5033928;28;20202;-60
2021/11/06 06:23:51;;;;;;;15.50;10.00;;;7.60;99.90;;;8.40;100.00;101297.56;5033843;28;20202;-60
2021/11/06 06:26:20;;;;;;;14.57;10.63;;;7.60;99.90;;;8.54;100.00;101288.75;5033624;28;20704;-61
2021/11/06 06:28:48;;;;;;;13.07;10.37;;;7.60;99.90;;;8.55;100.00;101290.44;5033525;28;20213;-61
2021/11/06 06:31:16;;;;;;;17.20;10.63;;;7.70;99.90;;;8.52;100.00;101285.41;5033720;28;20202;-60
2021/11/06 06:33:44;;;;;;;16.33;10.43;;;7.70;99.90;;;8.44;100.00;101298.88;5033346;28;20606;-60
2021/11/06 06:36:13;;;;;;;15.10;10.33;;;7.70;99.90;;;8.55;100.00;101301.16;5033611;28;20608;-59
2021/11/06 06:38:42;;;;;;;15.57;11.40;;;7.70;99.90;;;8.60;100.00;101299.63;5033227;28;20208;-61
2021/11/06 06:41:10;;;;;;;17.13;11.07;;;7.80;99.90;;;8.66;100.00;101302.59;5033510;28;20206;-59
2021/11/06 06:43:38;;;;;;;15.00;10.77;;;7.80;99.90;;;8.71;100.00;101301.03;5033205;28;20663;-60
2021/11/06 06:46:06;;;;;;;17.10;10.73;;;7.90;99.90;;;8.79;100.00;101305.53;5033466;28;20623;-60
2021/11/06 06:48:34;;;;;;;15.47;11.13;;;7.90;99.90;;;8.68;100.00;101305.97;5033149;28;20206;-59
2021/11/06 06:51:02;;;;;;;15.87;10.87;;;7.90;99.90;;;8.80;100.00;101313.41;5033028;28;20661;-61
2021/11/06 06:53:30;;;;;;;14.50;10.63;;;7.90;99.90;;;8.91;100.00;101309.47;5033319;28;20198;-60
2021/11/06 06:56:00;;;;;;;15.67;11.20;;;7.90;99.90;;;8.75;100.00;101317.63;5033100;28;20280;-61
2021/11/06 06:58:28;;;;;;;17.43;11.53;;;8.00;99.90;;;8.84;100.00;101316.56;5032929;28;20725;-61
2021/11/06 07:00:56;;;;;;;16.50;10.80;;;8.00;99.90;;;8.95;100.00;101310.75;5032905;28;20615;-62
2021/11/06 07:03:24;;;;;;;16.27;11.23;;;8.00;99.90;;;8.88;100.00;101316.00;5032791;28;20225;-60
2021/11/06 07:05:52;;;;;;;17.73;11.63;;;8.00;99.90;;;8.87;100.00;101317.03;5032605;28;20688;-61
2021/11/06 07:08:21;;;;;;;20.03;11.47;;;8.00;99.90;;;8.86;100.00;101314.53;5032753;28;20230;-60
2021/11/06 07:10:49;;;;;;;16.00;11.60;;;8.10;99.90;;;8.98;100.00;101316.59;5033017;28;20280;-60
2021/11/06 07:13:21;;;;;;;15.63;11.00;;;8.10;99.90;;;8.95;100.00;101318.81;5032965;28;20289;-60
2021/11/06 07:15:49;;;;;;;14.77;11.20;;;8.10;99.90;;;8.94;100.00;101326.06;5032968;28;20268;-60
2021/11/06 07:18:18;;;;;;;12.97;10.07;;;8.10;99.90;;;9.11;100.00;101327.59;5032477;28;20666;-61
2021/11/06 07:20:46;;;;;;;17.77;12.33;;;8.20;99.90;;;9.28;100.00;101320.22;5032863;28;20297;-60
2021/11/06 07:23:15;;;;;;;14.90;10.90;;;8.30;99.90;;;9.12;100.00;101339.16;5032900;28;20284;-61
2021/11/06 07:25:43;;;;;;;19.17;14.40;;;8.30;99.90;;;9.15;100.00;101331.56;5032750;28;20293;-60
2021/11/06 07:28:11;;;;;;;17.17;12.67;;;8.30;99.90;;;9.30;100.00;101335.13;5032546;28;20238;-60
2021/11/06 07:30:40;;;;;;;15.20;11.83;;;8.30;99.90;;;9.39;100.00;101325.97;5032756;28;20289;-60
2021/11/06 07:33:09;;;;;;;19.47;13.77;;;8.30;99.90;;;9.52;100.00;101336.94;5032384;28;20237;-61
2021/11/06 07:35:37;;;;;;;13.70;10.87;;;8.40;99.90;;;9.53;100.00;101337.78;5032148;28;20781;-60
2021/11/06 07:38:05;;;;;;;18.33;13.37;;;8.50;99.90;;;9.62;100.00;101334.81;5032543;28;20731;-60
2021/11/06 07:40:33;;;;;;;16.83;11.90;;;8.50;99.90;;;9.59;100.00;101342.41;5032415;28;20293;-61
2021/11/06 07:43:02;;;;;;;17.10;12.07;;;8.60;99.90;;;9.70;100.00;101341.97;5032529;28;20220;-62
2021/11/06 07:45:32;;;;;;;15.73;11.67;;;8.60;99.90;;;9.80;100.00;101340.69;5032525;28;20293;-60
2021/11/06 07:48:02;;;;;;;15.00;11.67;;;8.80;99.90;;;9.88;100.00;101339.72;5031861;28;20220;-61
2021/11/06 07:50:31;;;;;;;14.83;12.20;;;8.80;99.90;;;9.81;100.00;101345.03;5032143;28;20551;-60
2021/11/06 07:52:59;;;;;;;15.47;11.53;;;8.80;99.90;;;9.88;100.00;101339.72;5032540;28;20233;-60
2021/11/06 07:55:28;;;;;;;15.53;10.93;;;8.80;99.90;;;10.05;100.00;101345.75;5032382;28;20329;-61
2021/11/06 07:57:56;;;;;;;12.63;10.60;;;9.00;99.90;;;9.90;100.00;101337.69;5032239;28;20253;-60
2021/11/06 08:00:24;;;;;;;11.93;10.57;;;9.00;99.90;;;10.13;100.00;101334.94;5032390;28;20646;-60
2021/11/06 08:02:52;;;;;;;13.50;10.13;;;9.10;99.90;;;10.09;100.00;101333.63;5032292;28;20225;-62
2021/11/06 08:05:23;;;;;;;15.77;10.03;;;9.10;99.90;;;9.97;100.00;101324.31;5032476;28;20268;-61
2021/11/06 08:07:51;;;;;;;14.60;10.70;;;9.10;99.90;;;9.78;100.00;101331.09;5032068;28;20318;-60
2021/11/06 08:10:19;;;;;;;13.50;10.37;;;9.00;99.90;;;9.85;100.00;101322.13;5032282;28;20234;-63
2021/11/06 08:12:47;;;;;;;13.13;11.07;;;9.00;99.90;;;9.98;100.00;101324.13;5032372;28;20586;-62
2021/11/06 08:15:17;;;;;;;13.43;10.77;;;9.00;99.90;;;9.77;100.00;101321.38;5032249;28;20218;-61
2021/11/06 08:17:45;;;;;;;12.80;10.27;;;8.90;99.90;;;9.78;100.00;101331.94;5033697;28;20676;-61
2021/11/06 08:20:13;;;;;;;14.23;9.97;;;9.00;99.90;;;9.89;100.00;101325.28;5036055;28;20233;-59
2021/11/06 08:22:43;;;;;;;13.57;10.53;;;9.00;99.90;;;10.00;100.00;101332.00;5036034;28;20225;-60
2021/11/06 08:25:15;;;;;;;12.87;10.20;;;9.00;99.90;;;9.93;100.00;101333.81;5036162;28;20297;-60
2021/11/06 08:27:45;;;;;;;13.57;10.70;;;9.00;99.90;;;9.80;100.00;101332.59;5035808;28;20609;-60
2021/11/06 08:30:13;;;;;;;14.80;10.57;;;9.00;99.90;;;9.78;100.00;101331.09;5035925;28;20198;-61
2021/11/06 08:32:41;;;;;;;12.87;9.83;;;9.00;99.90;;;10.05;100.00;101332.28;5035803;28;20297;-61
2021/11/06 08:35:10;;;;;;;12.47;10.10;;;9.00;99.90;;;9.98;100.00;101324.13;5035877;28;20272;-60
2021/11/06 08:37:40;;;;;;;18.10;10.27;;;9.10;99.90;;;10.00;100.00;101322.09;5035700;28;20666;-61
2021/11/06 08:40:12;;;;;;;12.80;10.20;;;9.10;99.90;;;10.25;100.00;101320.78;5035465;28;20224;-59
2021/11/06 08:42:41;;;;;;;13.37;10.90;;;9.30;99.90;;;10.27;100.00;101323.28;5035735;28;20270;-62
2021/11/06 08:45:12;;;;;;;11.93;9.50;;;9.30;99.90;;;10.08;100.00;101332.78;5035677;28;20297;-60
2021/11/06 08:47:41;;;;;;;13.33;9.93;;;9.20;99.90;;;10.20;100.00;101327.78;5035185;28;20716;-61
2021/11/06 08:50:13;;;;;;;15.20;10.40;;;9.20;99.90;;;10.31;100.00;101328.13;5035567;28;20687;-61
2021/11/06 08:52:42;;;;;;;14.20;9.93;;;9.30;99.90;;;10.43;100.00;101332.00;5035636;28;20226;-60
2021/11/06 08:55:12;;;;;;;13.43;9.73;;;9.40;99.90;;;10.34;100.00;101329.59;5035722;28;20396;-60
2021/11/06 08:57:41;;;;;;;12.87;9.53;;;9.40;99.90;;;10.25;100.00;101330.75;5035268;28;20329;-61
2021/11/06 09:00:15;;;;;;;10.63;9.13;;;9.40;99.90;;;10.21;100.00;101329.44;5035619;28;20285;-61
2021/11/06 09:02:43;;;;;;;13.30;9.47;;;9.30;99.90;;;10.19;100.00;101323.41;5035199;28;20189;-60
2021/11/06 09:05:12;;;;;;;14.60;8.77;;;9.30;99.90;;;10.06;100.00;101323.22;5035508;28;20202;-61
2021/11/06 09:07:41;;;;;;;13.30;9.10;;;9.20;99.90;;;10.06;100.00;101318.66;5033542;28;20631;-60
2021/11/06 09:10:17;;;;;;;9.60;8.53;;;9.30;99.90;;;10.21;100.00;101315.97;5035066;28;20198;-62
2021/11/06 09:12:46;;;;;;;12.47;9.47;;;9.30;99.90;;;10.02;100.00;101317.38;5035095;28;20273;-62
2021/11/06 09:15:14;;;;;;;13.47;8.97;;;9.20;99.90;;;10.09;100.00;101314.78;5034938;28;20302;-60
2021/11/06 09:17:42;;;;;;;12.43;9.30;;;9.20;99.90;;;10.21;100.00;101327.59;5034323;28;20748;-60
2021/11/06 09:20:11;;;;;;;13.80;9.47;;;9.30;99.90;;;10.40;100.00;101321.56;5034698;28;20224;-61
2021/11/06 09:22:41;;;;;;;11.50;8.77;;;9.40;99.90;;;10.58;100.00;101323.88;5034869;28;20255;-60
2021/11/06 09:25:10;;;;;;;12.03;9.30;;;9.50;99.90;;;10.73;100.00;101333.56;5034640;28;20558;-60
2021/11/06 09:27:40;;;;;;;12.77;8.60;;;9.60;99.90;;;10.79;100.00;101315.81;5034822;28;20268;-66
2021/11/06 09:30:11;;;;;;;10.50;8.43;;;9.70;99.90;;;10.56;100.00;101331.28;5034696;28;20292;-66
2021/11/06 09:32:41;;;;;;;11.30;8.90;;;9.70;99.90;;;10.75;100.00;101327.97;5034407;28;20277;-62
2021/11/06 09:35:12;;;;;;;11.37;8.73;;;9.70;99.90;;;10.75;100.00;101327.97;5034555;28;20630;-61
2021/11/06 09:37:41;;;;;;;11.83;9.20;;;9.80;99.90;;;10.61;100.00;101327.00;5034556;28;20214;-61
2021/11/06 09:40:11;;;;;;;13.00;9.70;;;9.70;99.90;;;10.76;100.00;101324.25;5034746;28;20240;-61
2021/11/06 09:42:42;;;;;;;12.70;9.07;;;9.70;99.90;;;10.76;100.00;101327.78;5034933;28;20194;-59
2021/11/06 09:45:14;;;;;;;11.50;8.73;;;9.80;99.90;;;10.78;100.00;101333.81;5034125;28;20281;-55
2021/11/06 09:47:44;;;;;;;11.90;8.70;;;9.80;99.90;;;10.74;100.00;101331.69;5034127;28;20218;-55
2021/11/06 09:50:15;;;;;;;10.27;8.83;;;9.80;99.90;;;10.91;100.00;101322.31;5034579;28;20602;-60
2021/11/06 09:52:43;;;;;;;10.90;8.13;;;9.90;99.90;;;10.76;100.00;101330.47;5034166;28;20649;-61
2021/11/06 09:55:11;;;;;;;12.13;9.07;;;9.90;99.90;;;10.75;100.00;101338.75;5034154;28;20300;-60
2021/11/06 09:57:41;;;;;;;13.17;8.23;;;9.80;99.90;;;10.75;100.00;101336.06;5033777;28;20226;-59
2021/11/06 10:00:11;;;;;;;10.60;8.70;;;9.80;99.90;;;10.94;100.00;101332.75;5034031;28;20293;-59
2021/11/06 10:02:41;;;;;;;12.43;8.60;;;9.90;99.90;;;11.04;100.00;101335.94;5033876;28;20193;-59
2021/11/06 10:05:10;;;;;;;9.80;8.40;;;10.00;99.90;;;10.85;100.00;101325.81;5034117;28;20186;-67
2021/11/06 10:07:39;;;;;;;10.83;8.50;;;9.90;99.90;;;10.83;100.00;101333.25;5033972;28;20224;-59
2021/11/06 10:10:14;;;;;;;10.83;8.00;;;9.90;99.90;;;10.92;100.00;101329.41;5033790;28;20210;-59
2021/11/06 10:12:53;;;;;;;9.17;7.63;;;9.90;99.90;;;11.06;100.00;101323.91;5034098;28;20224;-60
2021/11/06 10:15:26;;;;;;;11.43;8.77;;;10.00;99.90;;;11.18;100.00;101321.53;5033814;28;20225;-60